Stanley Corner, South Dakota
Current Conditions -  °F | °C
As of 1:53 AM on Sunday 26 Oct 2014 (Local Time) from KMHE Reporting Station
Clear Clear  
Wind Chill: 41°   Ceiling: Unl
Heat Index: 46°   Visibility: 10mi
Dew Point: 35°   Wind: 9mph
Humidity: 66%   Direction: 130°SE
Pressure: 29.96"   Gusts: NA
Location:  43.5669°N, 97.5001°W
Report Text: KMHE 260653Z AUTO 13008KT 10SM CLR 08/02 A2996 RMK AO2 SLP147 T00780017 $
Loading
Personal Weather Stations






























Interactive Weather Map
Tropical Storm Tracking
New forecast layout! Learn more

10-Day Weather Forecast

Advertisements
Track Severe Weather on mobile